Data for 12/20/2005

Time Sea-Level Adjusted Pressure Absolute Pressure Temperature Relative Humidity Dew Point   
(mb) (inHg) (mb) (inHg) (C) (F) (%) (C) (F)
00:05 1025 30.27 854 25.22 -5.7 21.7 82 -8.4 16.8
00:10 1025 30.27 854 25.22 -5.4 22.2 81 -8.2 17.2
00:15 1025 30.27 854 25.22 -5.5 22.1 82 -8.1 17.3
00:20 1025 30.27 854 25.22 -5.4 22.3 80 -8.2 17.2
00:25 1025 30.27 854 25.22 -5.2 22.7 81 -8 17.7
00:30 1025 30.27 854 25.22 -5.3 22.5 81 -8 17.6
00:35 1025 30.27 854 25.22 -5.3 22.5 82 -7.9 17.8
00:40 1025 30.27 854 25.22 -5.1 22.9 82 -7.7 18.1
00:45 1025 30.27 854 25.22 -5 23.1 83 -7.5 18.6
00:50 1025 30.27 854 25.22 -4.8 23.4 83 -7.2 19
00:55 1025 30.27 854 25.22 -4.6 23.7 83 -7.1 19.3
01:00 1025 30.27 854 25.22 -4.5 23.9 81 -7.2 19
01:05 1025 30.27 854 25.22 -4.3 24.3 81 -7.1 19.2
01:10 1025 30.27 854 25.22 -4.1 24.6 80 -7 19.4
01:15 1025 30.27 854 25.22 -3.9 24.9 80 -7 19.5
01:20 1025 30.27 854 25.22 -4 24.7 80 -7 19.4
01:25 1025 30.27 854 25.22 -4.3 24.3 82 -7 19.5
01:30 1025 30.27 854 25.22 -4.1 24.6 81 -6.9 19.6
01:35 1025 30.27 854 25.22 -3.8 25.1 80 -6.8 19.7
01:40 1025 30.27 854 25.22 -3.7 25.3 80 -6.6 20
01:45 1024 30.24 854 25.22 -3.5 25.6 79 -6.6 20.1
01:50 1024 30.24 854 25.22 -3.5 25.7 80 -6.5 20.2
01:55 1024 30.24 854 25.22 -3.7 25.3 82 -6.3 20.6
02:00 1024 30.24 854 25.22 -3.6 25.6 81 -6.3 20.6
02:05 1024 30.24 854 25.22 -3.4 25.8 80 -6.4 20.5
02:10 1024 30.24 854 25.22 -3.5 25.8 81 -6.3 20.7
02:15 1024 30.24 854 25.22 -3.3 26.1 80 -6.2 20.9
02:20 1025 30.27 854 25.22 -3 26.7 79 -6.2 20.9
02:25 1024 30.24 854 25.22 -2.9 26.7 79 -6 21.1
02:30 1024 30.24 854 25.22 -3 26.6 80 -6 21.3
02:35 1024 30.24 854 25.22 -3 26.7 80 -5.9 21.4
02:40 1025 30.27 854 25.22 -3.1 26.3 81 -5.9 21.3
02:45 1025 30.27 854 25.22 -3.3 26.1 82 -5.9 21.4
02:50 1025 30.27 854 25.22 -3.3 26.1 84 -5.7 21.8
02:55 1025 30.27 854 25.22 -3.3 26 83 -5.8 21.5
03:00 1025 30.27 854 25.22 -3.7 25.3 84 -6.1 21.1
03:05 1025 30.27 854 25.22 -4 24.8 85 -6.2 20.8
03:10 1025 30.27 854 25.22 -4 24.7 85 -6.1 21
03:15 1025 30.27 854 25.22 -4.2 24.4 86 -6.2 20.8
03:20 1025 30.27 854 25.22 -4.4 24 87 -6.3 20.6
03:25 1025 30.27 854 25.22 -4.1 24.7 88 -5.8 21.5
03:30 1025 30.27 854 25.22 -3.6 25.5 86 -5.7 21.7
03:35 1025 30.27 854 25.22 -3.8 25.1 84 -6.2 20.8
03:40 1025 30.27 854 25.22 -4.6 23.7 84 -6.9 19.6
03:45 1025 30.27 854 25.22 -4.9 23.2 84 -7.2 19
03:50 1025 30.27 854 25.22 -5.1 22.8 84 -7.4 18.7
03:55 1025 30.27 854 25.22 -5.4 22.2 86 -7.5 18.5
04:00 1025 30.27 854 25.22 -5.6 21.9 89 -7.2 19.1
04:05 1025 30.27 854 25.22 -5.3 22.4 92 -6.4 20.5
04:10 1025 30.27 854 25.22 -4.6 23.7 90 -6 21.2
04:15 1025 30.27 854 25.22 -4.2 24.5 91 -5.5 22.2
04:20 1025 30.27 854 25.22 -3.8 25.1 91 -5.1 22.8
04:25 1024 30.24 854 25.22 -3.6 25.5 89 -5.2 22.6
04:30 1024 30.24 853 25.19 -3.4 25.9 85 -5.5 22
04:35 1024 30.24 854 25.22 -3.7 25.4 86 -5.7 21.8
04:40 1024 30.24 853 25.19 -3.9 25 88 -5.5 22
04:45 1024 30.24 854 25.22 -3.7 25.3 88 -5.5 22.1
04:50 1024 30.24 854 25.22 -3.7 25.4 89 -5.3 22.5
04:55 1024 30.24 854 25.22 -3.6 25.5 88 -5.2 22.6
05:00 1024 30.24 854 25.22 -3.5 25.7 88 -5.2 22.7
05:05 1024 30.24 854 25.22 -3.2 26.2 85 -5.3 22.4
05:10 1024 30.24 854 25.22 -3 26.6 84 -5.4 22.4
05:15 1024 30.24 854 25.22 -3 26.5 86 -5 22.9
05:20 1025 30.27 854 25.22 -3.2 26.2 88 -5 23.1
05:25 1025 30.27 854 25.22 -3.7 25.3 91 -5 22.9
05:30 1024 30.24 854 25.22 -3.6 25.6 91 -4.9 23.2
05:35 1024 30.24 854 25.22 -3.4 25.8 89 -5 22.9
05:40 1024 30.24 854 25.22 -3.3 26 87 -5.1 22.8
05:45 1025 30.27 854 25.22 -2.9 26.8 85 -5.1 22.9
05:50 1025 30.27 854 25.22 -3.1 26.5 88 -4.7 23.5
05:55 1024 30.24 854 25.22 -3 26.6 87 -4.9 23.1
06:00 1025 30.27 854 25.22 -2.8 27 84 -5.1 22.9
06:05 1024 30.24 854 25.22 -2.4 27.6 85 -4.7 23.6
06:10 1025 30.27 854 25.22 -2.5 27.5 84 -4.9 23.2
06:15 1024 30.24 854 25.22 -2.4 27.7 82 -5 23
06:20 1024 30.24 854 25.22 -2.3 27.8 82 -5 23
06:25 1024 30.24 854 25.22 -1.7 29 79 -4.8 23.4
06:30 1024 30.24 854 25.22 -1.7 29 80 -4.6 23.7
06:35 1024 30.24 854 25.22 -1.7 28.9 81 -4.5 23.9
06:40 1024 30.24 854 25.22 -1.9 28.6 83 -4.4 24.1
06:45 1025 30.27 854 25.22 -2.1 28.2 85 -4.3 24.2
06:50 1024 30.24 854 25.22 -2.1 28.3 84 -4.4 24.1
06:55 1025 30.27 854 25.22 -2 28.5 84 -4.4 24.1
07:00 1025 30.27 854 25.22 -1.6 29.1 83 -4.2 24.4
07:05 1025 30.27 854 25.22 -1.3 29.7 81 -4.1 24.6
07:10 1025 30.27 854 25.22 -1.3 29.6 80 -4.3 24.3
07:15 1025 30.27 854 25.22 -1.4 29.5 81 -4.3 24.3
07:20 1025 30.27 854 25.22 -1.7 29 83 -4.2 24.5
07:25 1025 30.27 854 25.22 -2.4 27.6 86 -4.4 24
07:30 1025 30.27 854 25.22 -2.8 26.9 88 -4.6 23.8
07:35 1025 30.27 854 25.22 -2.7 27.1 87 -4.6 23.8
07:40 1025 30.27 854 25.22 -2.6 27.3 88 -4.4 24.1
07:45 1025 30.27 854 25.22 -2.2 28 86 -4.3 24.2
07:50 1025 30.27 854 25.22 -2 28.3 87 -3.9 24.9
07:55 1025 30.27 854 25.22 -1.9 28.5 87 -3.9 25.1
08:00 1025 30.27 854 25.22 -1.3 29.7 84 -3.7 25.3
08:05 1025 30.27 854 25.22 -0.7 30.8 84 -3.1 26.4
08:10 1025 30.27 854 25.22 -0.2 31.6 81 -3.1 26.4
08:15 1025 30.27 854 25.22 -0.1 31.9 81 -3 26.7
08:20 1025 30.27 854 25.22 0 32.1 79 -3.2 26.3
08:25 1025 30.27 854 25.22 -0.3 31.5 80 -3.4 25.9
08:30 1025 30.27 854 25.22 -0.7 30.7 83 -3.3 26
08:35 1025 30.27 854 25.22 -0.9 30.4 83 -3.5 25.8
08:40 1025 30.27 854 25.22 -1.2 29.8 84 -3.5 25.6
08:45 1025 30.27 854 25.22 -1.8 28.8 87 -3.7 25.4
08:50 1025 30.27 854 25.22 -2 28.4 88 -3.8 25.2
08:55 1025 30.27 854 25.22 -2 28.5 87 -3.9 25
09:00 1025 30.27 854 25.22 -1.7 28.9 86 -3.7 25.3
09:05 1025 30.27 854 25.22 -1.4 29.5 84 -3.8 25.2
09:10 1025 30.27 854 25.22 -1.3 29.7 85 -3.5 25.8
09:15 1025 30.27 854 25.22 -1.1 30 85 -3.4 25.9
09:20 1025 30.27 854 25.22 -0.7 30.7 82 -3.4 25.9
09:25 1025 30.27 855 25.25 -0.1 31.8 81 -3 26.6
09:30 1025 30.27 855 25.25 0.3 32.6 80 -2.8 27
09:35 1025 30.27 855 25.25 0.8 33.4 78 -2.7 27.2
09:40 1025 30.27 855 25.25 0.9 33.7 79 -2.4 27.7
09:45 1025 30.27 855 25.25 0.7 33.3 80 -2.4 27.7
09:50 1025 30.27 855 25.25 0.7 33.3 77 -2.9 26.9
09:55 1026 30.3 855 25.25 0.8 33.4 75 -3.2 26.2
10:00 1026 30.3 855 25.25 0.5 32.9 78 -3 26.6
10:05 1026 30.3 855 25.25 0.4 32.6 78 -3.1 26.4
10:10 1026 30.3 855 25.25 0.3 32.6 79 -2.9 26.7
10:15 1025 30.27 855 25.25 0.2 32.4 79 -3.1 26.4
10:20 1026 30.3 855 25.25 0.6 33 77 -3.1 26.5
10:25 1026 30.3 855 25.25 0.8 33.5 76 -3 26.6
10:30 1026 30.3 855 25.25 1 33.8 76 -2.7 27.1
10:35 1026 30.3 855 25.25 1.2 34.1 75 -2.8 27
10:40 1025 30.27 855 25.25 1.5 34.6 74 -2.6 27.3
10:45 1025 30.27 855 25.25 1.8 35.2 73 -2.6 27.4
10:50 1025 30.27 854 25.22 2.1 35.9 72 -2.5 27.6
10:55 1025 30.27 854 25.22 2.1 35.7 72 -2.4 27.6
11:00 1025 30.27 854 25.22 1.8 35.3 72 -2.6 27.3
11:05 1025 30.27 854 25.22 2.2 35.9 71 -2.5 27.5
11:10 1025 30.27 854 25.22 2.3 36.1 71 -2.3 27.8
11:15 1025 30.27 854 25.22 2.5 36.5 71 -2.3 27.8
11:20 1025 30.27 854 25.22 3.1 37.6 69 -2.1 28.2
11:25 1025 30.27 854 25.22 3.7 38.7 66 -2.1 28.3
11:30 1024 30.24 854 25.22 3.1 37.6 69 -2 28.4
11:35 1024 30.24 854 25.22 2.8 37 69 -2.2 28
11:40 1024 30.24 854 25.22 2.7 36.9 71 -2.1 28.2
11:45 1024 30.24 853 25.19 2.7 36.9 71 -2.1 28.2
11:50 1024 30.24 853 25.19 2.7 36.9 71 -2 28.4
11:55 1024 30.24 853 25.19 2.5 36.6 71 -2.2 28
12:00 1024 30.24 853 25.19 2.9 37.2 69 -2.2 28
12:05 1024 30.24 853 25.19 2.9 37.3 70 -2 28.4
12:10 1024 30.24 853 25.19 3.3 38 69 -1.9 28.7
12:15 1024 30.24 853 25.19 3.3 37.9 69 -1.8 28.8
12:20 1024 30.24 853 25.19 3.2 37.8 70 -1.7 29
12:25 1024 30.24 853 25.19 3 37.4 71 -1.7 28.9
12:30 1024 30.24 853 25.19 2.8 37 72 -1.7 28.9
12:35 1024 30.24 853 25.19 2.5 36.4 74 -1.8 28.8
12:40 1024 30.24 853 25.19 2.3 36.2 74 -1.9 28.6
12:45 1024 30.24 853 25.19 2.5 36.4 73 -1.9 28.6
12:50 1024 30.24 853 25.19 2.4 36.4 73 -1.9 28.7
12:55 1023 30.21 853 25.19 2.4 36.3 73 -1.9 28.5
13:00 1023 30.21 853 25.19 2.2 35.9 73 -2.1 28.2
13:05 1023 30.21 852 25.16 2.2 36 73 -2.2 28.1
13:10 1023 30.21 852 25.16 2.7 36.8 71 -2 28.4
13:15 1023 30.21 852 25.16 2.8 37.1 71 -1.9 28.7
13:20 1023 30.21 852 25.16 3.1 37.6 70 -1.8 28.7
13:25 1023 30.21 852 25.16 3.4 38.1 68 -1.9 28.7
13:30 1023 30.21 852 25.16 3.5 38.4 69 -1.6 29
13:35 1023 30.21 852 25.16 4 39.1 66 -1.9 28.6
13:40 1023 30.21 852 25.16 4.2 39.6 65 -1.7 29
13:45 1023 30.21 852 25.16 4.5 40 65 -1.5 29.2
13:50 1023 30.21 852 25.16 4.8 40.6 63 -1.6 29.1
13:55 1023 30.21 852 25.16 5.1 41.2 63 -1.4 29.5
14:00 1023 30.21 852 25.16 4.5 40.1 66 -1.2 29.8
14:05 1023 30.21 852 25.16 4.3 39.8 66 -1.4 29.4
14:10 1023 30.21 852 25.16 4.3 39.8 66 -1.4 29.5
14:15 1023 30.21 852 25.16 4.3 39.7 68 -1.2 29.9
14:20 1023 30.21 852 25.16 3.9 39.1 69 -1.2 29.8
14:25 1023 30.21 852 25.16 4 39.1 68 -1.4 29.5
14:30 1023 30.21 852 25.16 4.4 39.9 67 -1.3 29.7
14:35 1023 30.21 852 25.16 4.7 40.4 66 -1.1 29.9
14:40 1023 30.21 852 25.16 4.8 40.7 65 -1.1 30
14:45 1023 30.21 852 25.16 4.6 40.3 66 -1.2 29.9
14:50 1023 30.21 852 25.16 4.7 40.4 66 -1.1 30.1
14:55 1023 30.21 852 25.16 5.6 42.1 61 -1.2 29.8
15:00 1023 30.21 852 25.16 6.4 43.5 58 -1.1 30
15:05 1023 30.21 852 25.16 6.4 43.5 59 -1.1 30.1
15:10 1023 30.21 852 25.16 6.2 43.2 59 -1.1 30.1
15:15 1023 30.21 852 25.16 6.1 43 62 -0.7 30.8
15:20 1023 30.21 852 25.16 5.8 42.4 61 -1.1 30.1
15:25 1023 30.21 852 25.16 5.3 41.6 65 -0.8 30.6
15:30 1023 30.21 852 25.16 5 40.9 65 -1 30.3
15:35 1023 30.21 852 25.16 4.1 39.4 69 -1 30.2
15:40 1023 30.21 852 25.16 3.6 38.5 71 -1.2 29.8
15:45 1023 30.21 852 25.16 3.5 38.4 70 -1.4 29.5
15:50 1023 30.21 852 25.16 3.8 38.9 70 -1.2 29.8
15:55 1023 30.21 852 25.16 4 39.2 69 -1.1 30
16:00 1023 30.21 852 25.16 4.2 39.5 68 -1.2 29.9
16:05 1023 30.21 852 25.16 4.3 39.7 68 -1 30.2
16:10 1023 30.21 852 25.16 4.1 39.4 69 -1 30.2
16:15 1023 30.21 852 25.16 3.7 38.6 72 -0.9 30.4
16:20 1023 30.21 852 25.16 3.2 37.8 73 -1.1 30
16:25 1023 30.21 852 25.16 2.9 37.2 75 -1.1 30
16:30 1023 30.21 852 25.16 2.4 36.4 76 -1.3 29.6
16:35 1023 30.21 853 25.19 2.1 35.8 77 -1.5 29.3
16:40 1023 30.21 853 25.19 1.8 35.3 78 -1.5 29.2
16:45 1023 30.21 852 25.16 1.6 34.8 80 -1.5 29.3
16:50 1023 30.21 852 25.16 1.2 34.2 82 -1.5 29.3
16:55 1023 30.21 852 25.16 1.1 34 82 -1.6 29.2
17:00 1023 30.21 852 25.16 1.2 34.2 81 -1.6 29.1
17:05 1023 30.21 852 25.16 1.4 34.5 80 -1.7 29
17:10 1023 30.21 852 25.16 1.1 34 81 -1.8 28.8
17:15 1023 30.21 852 25.16 0.8 33.5 82 -1.9 28.6
17:20 1023 30.21 852 25.16 0.8 33.5 82 -2 28.5
17:25 1023 30.21 852 25.16 0.9 33.7 82 -1.8 28.7
17:30 1023 30.21 852 25.16 0.9 33.6 82 -1.8 28.8
17:35 1023 30.21 852 25.16 0.8 33.5 83 -1.8 28.8
17:40 1023 30.21 852 25.16 1 33.8 81 -1.9 28.5
17:45 1023 30.21 852 25.16 1.3 34.3 81 -1.7 29
17:50 1023 30.21 852 25.16 1.5 34.7 80 -1.5 29.3
17:55 1023 30.21 852 25.16 2.1 35.8 78 -1.3 29.6
18:00 1023 30.21 852 25.16 2.3 36.2 79 -1 30.2
18:05 1023 30.21 852 25.16 2.5 36.5 79 -0.8 30.6
18:10 1023 30.21 852 25.16 2.6 36.6 79 -0.7 30.8
18:15 1023 30.21 852 25.16 2.7 36.9 79 -0.5 31
18:20 1023 30.21 852 25.16 2.7 36.9 80 -0.4 31.3
18:25 1023 30.21 852 25.16 2.7 36.8 79 -0.6 31
18:30 1023 30.21 852 25.16 2.5 36.5 81 -0.4 31.3
18:35 1023 30.21 852 25.16 2.5 36.5 81 -0.4 31.3
18:40 1023 30.21 852 25.16 2.4 36.4 82 -0.4 31.3
18:45 1023 30.21 852 25.16 2.1 35.8 84 -0.4 31.3
18:50 1023 30.21 852 25.16 2.1 35.8 84 -0.4 31.3
18:55 1023 30.21 852 25.16 2.4 36.3 82 -0.3 31.5
19:00 1023 30.21 852 25.16 2.8 37 81 -0.1 31.9
19:05 1023 30.21 852 25.16 2.8 37 82 -0.1 31.9
19:10 1023 30.21 852 25.16 2.6 36.7 81 -0.2 31.6
19:15 1023 30.21 852 25.16 2.9 37.1 80 -0.2 31.7
19:20 1023 30.21 852 25.16 3.1 37.5 81 0.1 32.1
19:25 1023 30.21 852 25.16 3.4 38 78 -0.2 31.7
19:30 1023 30.21 852 25.16 3.4 38.2 79 0.1 32.2
19:35 1023 30.21 852 25.16 3.1 37.5 80 -0 32
19:40 1023 30.21 852 25.16 2.7 36.9 81 -0.2 31.6
19:45 1023 30.21 852 25.16 2.2 35.9 83 -0.4 31.3
19:50 1023 30.21 852 25.16 2.1 35.9 83 -0.5 31.1
19:55 1023 30.21 852 25.16 2.3 36.1 82 -0.4 31.3
20:00 1023 30.21 852 25.16 2.3 36.1 83 -0.3 31.4
20:05 1023 30.21 852 25.16 2.2 35.9 83 -0.4 31.3
20:10 1023 30.21 852 25.16 2.3 36.1 84 -0.2 31.7
20:15 1023 30.21 852 25.16 2.6 36.6 82 -0.2 31.6
20:20 1023 30.21 852 25.16 1.9 35.4 86 -0.3 31.5
20:25 1023 30.21 852 25.16 2.3 36.2 82 -0.5 31.2
20:30 1023 30.21 852 25.16 3 37.4 78 -0.5 31.2
20:35 1023 30.21 852 25.16 3.2 37.7 77 -0.5 31.1
20:40 1023 30.21 852 25.16 3.2 37.8 78 -0.3 31.4
20:45 1023 30.21 852 25.16 2.8 37 80 -0.3 31.4
20:50 1023 30.21 852 25.16 2.9 37.2 80 -0.2 31.6
20:55 1023 30.21 852 25.16 2.7 36.8 80 -0.4 31.2
21:00 1023 30.21 852 25.16 2.6 36.7 81 -0.4 31.3
21:05 1023 30.21 852 25.16 2.5 36.5 81 -0.5 31.2
21:10 1023 30.21 852 25.16 2.1 35.9 81 -0.7 30.7
21:15 1023 30.21 852 25.16 2.2 36 81 -0.7 30.7
21:20 1023 30.21 852 25.16 2.8 37.1 78 -0.7 30.7
21:25 1023 30.21 852 25.16 2.9 37.1 78 -0.6 30.9
21:30 1023 30.21 852 25.16 2.7 36.8 79 -0.6 31
21:35 1023 30.21 852 25.16 2.3 36.1 79 -0.9 30.3
21:40 1023 30.21 852 25.16 2.6 36.8 78 -0.8 30.5
21:45 1023 30.21 852 25.16 2.6 36.7 78 -0.8 30.6
21:50 1023 30.21 852 25.16 2.6 36.7 80 -0.6 31
21:55 1023 30.21 852 25.16 2.7 36.8 80 -0.5 31.1
22:00 1023 30.21 852 25.16 2.7 36.9 79 -0.5 31
22:05 1023 30.21 852 25.16 2.7 36.9 79 -0.5 31.2
22:10 1023 30.21 852 25.16 3 37.4 77 -0.6 30.9
22:15 1023 30.21 852 25.16 3.1 37.7 77 -0.6 31
22:20 1023 30.21 852 25.16 3 37.4 77 -0.6 30.9
22:25 1023 30.21 852 25.16 2.9 37.1 78 -0.7 30.8
22:30 1023 30.21 852 25.16 3.2 37.7 76 -0.7 30.8
22:35 1023 30.21 852 25.16 3.3 37.9 76 -0.5 31.1
22:40 1023 30.21 852 25.16 3.2 37.7 77 -0.5 31
22:45 1023 30.21 852 25.16 3.2 37.8 76 -0.6 30.9
22:50 1023 30.21 852 25.16 3.6 38.5 74 -0.7 30.8
22:55 1023 30.21 852 25.16 4.1 39.4 72 -0.4 31.2
23:00 1023 30.21 852 25.16 3.8 38.8 74 -0.5 31.1
23:05 1023 30.21 852 25.16 3.5 38.4 75 -0.5 31.2
23:10 1023 30.21 852 25.16 3.3 38 76 -0.5 31.2
23:15 1023 30.21 852 25.16 3.1 37.6 77 -0.6 31
23:20 1023 30.21 852 25.16 3 37.4 78 -0.5 31.1
23:25 1023 30.21 852 25.16 2.8 37.1 78 -0.7 30.8
23:30 1023 30.21 852 25.16 3.2 37.8 77 -0.5 31.1
23:35 1023 30.21 852 25.16 3.6 38.5 74 -0.5 31
23:40 1023 30.21 852 25.16 3.6 38.5 74 -0.6 30.9
23:45 1023 30.21 852 25.16 3.7 38.7 75 -0.4 31.3
23:50 1022 30.18 852 25.16 3.8 38.8 73 -0.6 30.9
23:55 1022 30.18 852 25.16 4.2 39.5 73 -0.3 31.5
24:00 1022 30.18 852 25.16 4.2 39.5 73 -0.3 31.5